createdAt,value
2018-06-30T00:00:45.603Z,98733.45
2018-06-30T00:03:16.034Z,98727.30
2018-06-30T00:05:45.188Z,98724.61
2018-06-30T00:08:14.409Z,98728.53
2018-06-30T00:10:43.688Z,98731.46
2018-06-30T00:13:13.170Z,98727.88
2018-06-30T00:15:42.393Z,98731.91
2018-06-30T00:18:11.913Z,98728.98
2018-06-30T00:20:41.218Z,98732.95
2018-06-30T00:23:10.454Z,98733.52
2018-06-30T00:25:39.595Z,98731.41
2018-06-30T00:28:08.709Z,98727.55
2018-06-30T00:30:38.123Z,98724.09
2018-06-30T00:33:07.223Z,98732.73
2018-06-30T00:35:36.266Z,98720.19
2018-06-30T00:38:05.379Z,98720.31
2018-06-30T00:40:34.438Z,98723.34
2018-06-30T00:43:03.519Z,98719.97
2018-06-30T00:45:32.631Z,98721.08
2018-06-30T00:48:01.731Z,98718.72
2018-06-30T00:50:30.965Z,98717.14
2018-06-30T00:53:00.496Z,98713.90
2018-06-30T00:55:30.024Z,98718.14
2018-06-30T00:57:59.292Z,98712.77
2018-06-30T01:00:28.397Z,98712.19
2018-06-30T01:02:57.558Z,98714.77
2018-06-30T01:05:26.735Z,98710.50
2018-06-30T01:07:56.285Z,98709.16
2018-06-30T01:10:25.371Z,98716.31
2018-06-30T01:12:54.465Z,98718.89
2018-06-30T01:15:23.657Z,98716.64
2018-06-30T01:17:52.823Z,98709.14
2018-06-30T01:20:22.319Z,98715.30
2018-06-30T01:22:51.405Z,98712.92
2018-06-30T01:25:20.522Z,98710.92
2018-06-30T01:27:49.608Z,98719.17
2018-06-30T01:30:18.760Z,98713.00
2018-06-30T01:32:47.853Z,98712.75
2018-06-30T01:35:16.993Z,98723.05
2018-06-30T01:37:46.094Z,98718.03
2018-06-30T01:40:15.278Z,98710.86
2018-06-30T01:42:44.824Z,98715.72
2018-06-30T01:45:13.952Z,98712.98
2018-06-30T01:47:43.051Z,98714.23
2018-06-30T01:50:12.245Z,98708.59
2018-06-30T01:52:41.342Z,98708.52
2018-06-30T01:55:10.474Z,98549.28
2018-06-30T01:57:39.497Z,98717.61
2018-06-30T02:00:08.639Z,98711.94
2018-06-30T02:02:37.705Z,98713.35
2018-06-30T02:05:06.822Z,98712.20
2018-06-30T02:07:35.918Z,98710.62
2018-06-30T02:10:05.013Z,98721.10
2018-06-30T02:12:34.161Z,98720.41
2018-06-30T02:15:03.342Z,98724.42
2018-06-30T02:17:33.084Z,98716.14
2018-06-30T02:20:02.284Z,98718.13
2018-06-30T02:22:31.458Z,98712.45
2018-06-30T02:25:01.258Z,98712.97
2018-06-30T02:27:30.362Z,98714.62
2018-06-30T02:29:59.963Z,98714.19
2018-06-30T02:32:29.274Z,98715.86
2018-06-30T02:34:58.356Z,98720.95
2018-06-30T02:37:27.794Z,98716.89
2018-06-30T02:39:56.998Z,98724.29
2018-06-30T02:42:26.086Z,98723.70
2018-06-30T02:44:55.166Z,98727.14
2018-06-30T02:47:24.250Z,98719.49
2018-06-30T02:49:54.003Z,98618.48
2018-06-30T02:52:23.081Z,98726.06
2018-06-30T02:54:52.171Z,98724.02
2018-06-30T02:57:21.272Z,98724.72
2018-06-30T02:59:50.373Z,98725.48
2018-06-30T03:02:19.506Z,98730.20
2018-06-30T03:04:48.815Z,98726.52
2018-06-30T03:07:17.990Z,98728.70
2018-06-30T03:09:47.072Z,98725.06
2018-06-30T03:12:16.319Z,98729.16
2018-06-30T03:14:45.504Z,98726.81
2018-06-30T03:17:14.563Z,98721.75
2018-06-30T03:19:43.700Z,98728.16
2018-06-30T03:22:12.778Z,98727.37
2018-06-30T03:24:41.837Z,98727.16
2018-06-30T03:27:11.038Z,98730.12
2018-06-30T03:29:40.101Z,98728.58
2018-06-30T03:32:09.206Z,98734.34
2018-06-30T03:34:38.292Z,98731.84
2018-06-30T03:37:07.414Z,98734.83
2018-06-30T03:39:36.969Z,98742.94
2018-06-30T03:42:06.154Z,98741.44
2018-06-30T03:44:35.305Z,98739.44
2018-06-30T03:47:04.621Z,98734.11
2018-06-30T03:49:33.791Z,98739.55
2018-06-30T03:52:02.907Z,98737.01
2018-06-30T03:54:32.126Z,98728.86
2018-06-30T03:57:01.302Z,98727.91
2018-06-30T03:59:30.445Z,98729.98
2018-06-30T04:01:59.589Z,98727.80
2018-06-30T04:04:28.709Z,98731.02
2018-06-30T04:06:57.794Z,98729.39
2018-06-30T04:09:26.897Z,98730.23
2018-06-30T04:11:55.983Z,98732.06
2018-06-30T04:14:25.404Z,98729.52
2018-06-30T04:16:54.473Z,98524.06
2018-06-30T04:19:23.678Z,98730.39
2018-06-30T04:21:52.869Z,98729.73
2018-06-30T04:24:22.071Z,98727.39
2018-06-30T04:26:51.276Z,98738.38
2018-06-30T04:29:20.487Z,98729.11
2018-06-30T04:31:49.661Z,98729.48
2018-06-30T04:34:18.735Z,98732.66
2018-06-30T04:36:47.872Z,98735.13
2018-06-30T04:39:17.040Z,98735.13
2018-06-30T04:41:46.138Z,98732.14
2018-06-30T04:44:15.669Z,98731.33
2018-06-30T04:46:44.841Z,98724.92
2018-06-30T04:49:13.909Z,98732.55
2018-06-30T04:51:43.042Z,98738.58
2018-06-30T04:54:12.127Z,98735.78
2018-06-30T04:56:41.193Z,98734.52
2018-06-30T04:59:10.380Z,98735.10
2018-06-30T05:01:39.601Z,98732.62
2018-06-30T05:04:09.006Z,98738.74
2018-06-30T05:06:38.203Z,98729.73
2018-06-30T05:09:08.165Z,98727.84
2018-06-30T05:11:37.413Z,98732.97
2018-06-30T05:14:06.630Z,98725.64
2018-06-30T05:16:36.105Z,98726.34
2018-06-30T05:19:05.222Z,98730.21
2018-06-30T05:21:34.472Z,98728.50
2018-06-30T05:24:03.627Z,98730.48
2018-06-30T05:26:32.740Z,98729.84
2018-06-30T05:29:01.788Z,98726.78
2018-06-30T05:31:30.939Z,98731.62
2018-06-30T05:34:00.015Z,98728.96
2018-06-30T05:36:29.117Z,98724.88
2018-06-30T05:38:58.541Z,98712.45
2018-06-30T05:41:27.644Z,98718.17
2018-06-30T05:43:56.722Z,98725.08
2018-06-30T05:46:25.800Z,98725.23
2018-06-30T05:48:55.017Z,98729.48
2018-06-30T05:51:24.105Z,98728.05
2018-06-30T05:53:53.249Z,98726.73
2018-06-30T05:56:22.402Z,98717.45
2018-06-30T05:58:52.066Z,98725.41
2018-06-30T06:01:21.173Z,98725.70
2018-06-30T06:03:50.313Z,98698.58
2018-06-30T06:06:19.362Z,98728.81
2018-06-30T06:08:48.478Z,98730.14
2018-06-30T06:11:17.557Z,98728.01
2018-06-30T06:13:46.740Z,98726.41
2018-06-30T06:16:15.905Z,98733.70
2018-06-30T06:18:45.122Z,98733.13
2018-06-30T06:21:14.642Z,98737.25
2018-06-30T06:23:44.558Z,98740.62
2018-06-30T06:26:13.683Z,98738.03
2018-06-30T06:28:42.843Z,98744.15
2018-06-30T06:31:12.041Z,98737.45
2018-06-30T06:33:41.283Z,98734.05
2018-06-30T06:36:10.498Z,98731.52
2018-06-30T06:38:39.799Z,98727.91
2018-06-30T06:41:08.972Z,98729.60
2018-06-30T06:43:38.137Z,98731.45
2018-06-30T06:46:07.334Z,98731.36
2018-06-30T06:48:36.446Z,98729.77
2018-06-30T06:51:05.581Z,98727.38
2018-06-30T06:53:34.737Z,98723.41
2018-06-30T06:56:03.837Z,98720.58
2018-06-30T06:58:32.877Z,98726.02
2018-06-30T07:01:02.051Z,98725.91
2018-06-30T07:03:31.910Z,98732.80
2018-06-30T07:06:01.149Z,98725.72
2018-06-30T07:08:30.262Z,98725.52
2018-06-30T07:10:59.458Z,98721.98
2018-06-30T07:13:28.524Z,98720.79
2018-06-30T07:15:57.645Z,98719.87
2018-06-30T07:18:26.761Z,98724.25
2018-06-30T07:20:56.041Z,98722.98
2018-06-30T07:23:25.141Z,98721.67
2018-06-30T07:25:54.281Z,98720.09
2018-06-30T07:28:23.530Z,98723.76
2018-06-30T07:30:52.634Z,98719.33
2018-06-30T07:33:21.800Z,98720.24
2018-06-30T07:35:50.925Z,98724.84
2018-06-30T07:38:20.015Z,98717.99
2018-06-30T07:40:49.193Z,98717.97
2018-06-30T07:43:18.373Z,98716.22
2018-06-30T07:45:47.455Z,98716.84
2018-06-30T07:48:16.660Z,98713.98
2018-06-30T07:50:45.811Z,98711.76
2018-06-30T07:53:15.019Z,98710.19
2018-06-30T07:55:44.203Z,98714.77
2018-06-30T07:58:13.315Z,98713.75
2018-06-30T08:00:42.623Z,98715.61
2018-06-30T08:03:11.805Z,98709.92
2018-06-30T08:05:41.002Z,98711.13
2018-06-30T08:08:10.074Z,98716.05
2018-06-30T08:10:39.214Z,98719.23
2018-06-30T08:13:08.534Z,98713.20
2018-06-30T08:15:37.756Z,98706.86
2018-06-30T08:18:06.998Z,98708.31
2018-06-30T08:20:36.500Z,98705.42
2018-06-30T08:23:05.817Z,98702.34
2018-06-30T08:25:35.968Z,98701.36
2018-06-30T08:28:06.422Z,98706.87
2018-06-30T08:30:35.650Z,98705.96
2018-06-30T08:33:04.715Z,98710.81
2018-06-30T08:35:33.858Z,98712.20
2018-06-30T08:38:02.974Z,98709.48
2018-06-30T08:40:32.122Z,98714.20
2018-06-30T08:43:01.181Z,98710.14
2018-06-30T08:45:42.907Z,98716.95
2018-06-30T08:48:12.102Z,98718.13
2018-06-30T08:50:41.298Z,98711.89
2018-06-30T08:53:11.221Z,98714.08
2018-06-30T08:55:40.446Z,98711.24
2018-06-30T08:58:09.520Z,98718.23
2018-06-30T09:00:38.769Z,98692.17
2018-06-30T09:03:07.874Z,98715.83
2018-06-30T09:05:37.104Z,98712.13
2018-06-30T09:08:06.505Z,98719.89
2018-06-30T09:10:35.711Z,98714.31
2018-06-30T09:13:04.810Z,98710.79
2018-06-30T09:15:33.958Z,98712.13
2018-06-30T09:18:03.059Z,98706.20
2018-06-30T09:20:32.187Z,98697.49
2018-06-30T09:23:01.385Z,98702.41
2018-06-30T09:25:30.481Z,98699.73
2018-06-30T09:27:59.484Z,98700.81
2018-06-30T09:30:28.651Z,98702.23
2018-06-30T09:32:58.183Z,98700.08
2018-06-30T09:35:27.347Z,98697.31
2018-06-30T09:37:56.389Z,98699.53
2018-06-30T09:40:25.431Z,98701.31
2018-06-30T09:42:54.559Z,98693.27
2018-06-30T09:45:24.090Z,98699.70
2018-06-30T09:47:53.658Z,98701.67
2018-06-30T09:50:22.767Z,98702.33
2018-06-30T09:52:51.863Z,98698.77
2018-06-30T09:55:20.962Z,98694.52
2018-06-30T09:57:50.157Z,98695.30
2018-06-30T10:00:24.691Z,98696.69
2018-06-30T10:02:53.780Z,98699.03
2018-06-30T10:05:22.966Z,98695.02
2018-06-30T10:07:52.117Z,98644.06
2018-06-30T10:10:21.291Z,98697.65
2018-06-30T10:12:50.627Z,98696.56
2018-06-30T10:15:19.763Z,98688.14
2018-06-30T10:17:48.817Z,98696.77
2018-06-30T10:20:17.955Z,98668.80
2018-06-30T10:22:47.044Z,98699.21
2018-06-30T10:25:16.182Z,98696.97
2018-06-30T10:27:45.340Z,98680.48
2018-06-30T10:30:14.478Z,98678.12
2018-06-30T10:32:43.657Z,98680.47
2018-06-30T10:35:12.849Z,98678.90
2018-06-30T10:37:41.950Z,98683.96
2018-06-30T10:40:11.236Z,98682.19
2018-06-30T10:42:40.282Z,98674.05
2018-06-30T10:45:09.478Z,98670.51
2018-06-30T10:47:38.523Z,98678.44
2018-06-30T10:50:07.941Z,98671.84
2018-06-30T10:52:37.042Z,98666.39
2018-06-30T10:55:06.130Z,98675.71
2018-06-30T10:57:35.410Z,98672.80
2018-06-30T11:00:04.938Z,98661.67
2018-06-30T11:02:34.018Z,98660.59
2018-06-30T11:05:03.097Z,98666.56
2018-06-30T11:07:32.182Z,98666.25
2018-06-30T11:10:01.725Z,98665.30
2018-06-30T11:12:30.794Z,98668.27
2018-06-30T11:14:59.978Z,98662.03
2018-06-30T11:17:29.094Z,98661.79
2018-06-30T11:19:58.309Z,98655.14
2018-06-30T11:22:27.867Z,98661.75
2018-06-30T11:24:56.885Z,98656.12
2018-06-30T11:27:26.020Z,98654.31
2018-06-30T11:29:55.206Z,98650.97
2018-06-30T11:32:24.306Z,98651.83
2018-06-30T11:34:53.451Z,98650.77
2018-06-30T11:37:22.557Z,98639.03
2018-06-30T11:39:51.681Z,98638.13
2018-06-30T11:42:20.778Z,98636.52
2018-06-30T11:44:49.857Z,98645.70
2018-06-30T11:47:19.159Z,98638.13
2018-06-30T11:49:48.379Z,98640.93
2018-06-30T11:52:17.477Z,98637.34
2018-06-30T11:54:46.541Z,98636.88
2018-06-30T11:57:15.642Z,98633.33
2018-06-30T11:59:44.806Z,98637.59
2018-06-30T12:02:13.920Z,98632.36
2018-06-30T12:04:43.052Z,98629.58
2018-06-30T12:07:12.961Z,98619.17
2018-06-30T12:09:42.140Z,98621.89
2018-06-30T12:12:11.254Z,98622.11
2018-06-30T12:14:40.340Z,98626.02
2018-06-30T12:17:09.466Z,98628.35
2018-06-30T12:19:38.564Z,98622.37
2018-06-30T12:22:07.646Z,98623.58
2018-06-30T12:24:36.783Z,98629.91
2018-06-30T12:27:05.914Z,98623.95
2018-06-30T12:29:35.115Z,98619.38
2018-06-30T12:32:04.286Z,98610.00
2018-06-30T12:34:33.261Z,98614.50
2018-06-30T12:37:02.360Z,98617.02
2018-06-30T12:39:31.433Z,98609.30
2018-06-30T12:42:00.606Z,98615.91
2018-06-30T12:44:29.654Z,98603.12
2018-06-30T12:46:58.747Z,98616.04
2018-06-30T12:49:27.845Z,98603.40
2018-06-30T12:51:56.900Z,98594.63
2018-06-30T12:54:26.091Z,98603.20
2018-06-30T12:56:55.754Z,98598.03
2018-06-30T12:59:24.849Z,98599.52
2018-06-30T13:01:54.056Z,98593.59
2018-06-30T13:04:23.096Z,98596.94
2018-06-30T13:06:52.197Z,98592.96
2018-06-30T13:09:21.276Z,98591.65
2018-06-30T13:11:50.992Z,98598.41
2018-06-30T13:14:20.264Z,98603.43
2018-06-30T13:16:49.472Z,98595.45
2018-06-30T13:19:18.602Z,98590.91
2018-06-30T13:21:47.847Z,98592.05
2018-06-30T13:24:17.008Z,98582.64
2018-06-30T13:26:46.387Z,98578.36
2018-06-30T13:29:15.595Z,98572.18
2018-06-30T13:31:44.784Z,98573.19
2018-06-30T13:34:13.933Z,98575.60
2018-06-30T13:36:42.957Z,98574.44
2018-06-30T13:39:14.025Z,98571.95
2018-06-30T13:41:43.645Z,98563.55
2018-06-30T13:44:13.231Z,98560.00
2018-06-30T13:46:42.305Z,98572.34
2018-06-30T13:49:11.472Z,98567.11
2018-06-30T13:51:40.493Z,98569.48
2018-06-30T13:54:09.727Z,98564.48
2018-06-30T13:56:38.828Z,98563.98
2018-06-30T13:59:08.244Z,98573.34
2018-06-30T14:01:37.510Z,98569.40
2018-06-30T14:04:06.661Z,98563.92
2018-06-30T14:06:35.792Z,98569.25
2018-06-30T14:09:07.942Z,98564.95
2018-06-30T14:11:37.406Z,98571.75
2018-06-30T14:14:06.851Z,98564.68
2018-06-30T14:16:36.304Z,98571.91
2018-06-30T14:19:05.431Z,98568.55
2018-06-30T14:21:34.476Z,98562.88
2018-06-30T14:24:03.602Z,98559.73
2018-06-30T14:26:32.689Z,98561.70
2018-06-30T14:29:01.893Z,98561.37
2018-06-30T14:31:31.015Z,98563.95
2018-06-30T14:34:00.279Z,98560.78
2018-06-30T14:36:29.406Z,98560.34
2018-06-30T14:38:58.451Z,98556.86
2018-06-30T14:41:27.591Z,98554.73
2018-06-30T14:43:56.890Z,98553.97
2018-06-30T14:46:25.985Z,98553.62
2018-06-30T14:48:55.888Z,98553.91
2018-06-30T14:51:25.005Z,98554.16
2018-06-30T14:53:54.129Z,98549.20
2018-06-30T14:56:23.333Z,98546.28
2018-06-30T14:58:52.824Z,98553.83
2018-06-30T15:01:22.013Z,98548.69
2018-06-30T15:03:51.205Z,98532.16
2018-06-30T15:06:20.318Z,98544.55
2018-06-30T15:08:49.370Z,98547.49
2018-06-30T15:11:18.551Z,98552.76
2018-06-30T15:13:48.028Z,98548.30
2018-06-30T15:16:17.358Z,98550.46
2018-06-30T15:18:46.474Z,98554.06
2018-06-30T15:21:15.493Z,98557.60
2018-06-30T15:23:44.632Z,98562.11
2018-06-30T15:26:14.525Z,98554.84
2018-06-30T15:28:43.690Z,98549.52
2018-06-30T15:31:12.769Z,98555.05
2018-06-30T15:33:41.948Z,98551.08
2018-06-30T15:36:11.209Z,98554.61
2018-06-30T15:38:40.102Z,98553.56
2018-06-30T15:41:09.199Z,98555.06
2018-06-30T15:43:38.496Z,98551.76
2018-06-30T15:46:07.762Z,98556.05
2018-06-30T15:48:36.888Z,98552.98
2018-06-30T15:51:06.053Z,98552.69
2018-06-30T15:53:35.165Z,98549.17
2018-06-30T15:56:04.586Z,98551.97
2018-06-30T15:58:34.246Z,98551.91
2018-06-30T16:01:03.323Z,98544.77
2018-06-30T16:03:33.274Z,98548.66
2018-06-30T16:06:02.543Z,98552.86
2018-06-30T16:08:31.631Z,98544.16
2018-06-30T16:11:00.698Z,98548.37
2018-06-30T16:13:30.170Z,98548.31
2018-06-30T16:15:59.302Z,98546.91
2018-06-30T16:18:28.330Z,98519.11
2018-06-30T16:20:57.587Z,98540.78
2018-06-30T16:23:26.698Z,98537.73
2018-06-30T16:25:55.880Z,98531.41
2018-06-30T16:28:24.999Z,98526.77
2018-06-30T16:30:54.163Z,98523.44
2018-06-30T16:33:23.189Z,98526.38
2018-06-30T16:35:52.374Z,98520.50
2018-06-30T16:38:21.430Z,98527.76
2018-06-30T16:40:50.521Z,98527.05
2018-06-30T16:43:19.661Z,98524.70
2018-06-30T16:45:48.770Z,98527.81
2018-06-30T16:48:17.896Z,98531.03
2018-06-30T16:50:47.582Z,98521.27
2018-06-30T16:53:16.723Z,98521.41
2018-06-30T16:55:45.788Z,98526.72
2018-06-30T16:58:14.891Z,98526.30
2018-06-30T17:00:44.042Z,98533.50
2018-06-30T17:03:13.437Z,98531.53
2018-06-30T17:05:42.532Z,98532.08
2018-06-30T17:08:12.851Z,98533.45
2018-06-30T17:10:42.101Z,98525.91
2018-06-30T17:13:11.533Z,98526.77
2018-06-30T17:15:40.633Z,98536.18
2018-06-30T17:18:09.759Z,98526.15
2018-06-30T17:20:38.975Z,98529.20
2018-06-30T17:23:08.146Z,98530.44
2018-06-30T17:25:37.198Z,98525.55
2018-06-30T17:28:06.340Z,98520.95
2018-06-30T17:30:35.433Z,98527.38
2018-06-30T17:33:04.994Z,98527.14
2018-06-30T17:35:34.460Z,98531.91
2018-06-30T17:38:03.614Z,98525.38
2018-06-30T17:40:32.809Z,98542.28
2018-06-30T17:43:01.942Z,98537.59
2018-06-30T17:45:31.021Z,98531.95
2018-06-30T17:48:00.089Z,98535.34
2018-06-30T17:50:29.338Z,98530.87
2018-06-30T17:52:58.461Z,98530.87
2018-06-30T17:55:27.542Z,98535.85
2018-06-30T17:57:56.658Z,98532.63
2018-06-30T18:00:25.789Z,98536.20
2018-06-30T18:02:54.869Z,98533.62
2018-06-30T18:05:23.988Z,98536.84
2018-06-30T18:07:53.076Z,98533.18
2018-06-30T18:10:22.230Z,98537.08
2018-06-30T18:12:51.398Z,98530.67
2018-06-30T18:15:20.636Z,98534.75
2018-06-30T18:17:49.682Z,98542.32
2018-06-30T18:20:18.763Z,98539.60
2018-06-30T18:22:47.827Z,98543.25
2018-06-30T18:25:16.901Z,98540.83
2018-06-30T18:27:45.951Z,98538.88
2018-06-30T18:30:15.072Z,98540.40
2018-06-30T18:32:44.162Z,98544.50
2018-06-30T18:35:13.281Z,98539.11
2018-06-30T18:37:42.461Z,98540.37
2018-06-30T18:40:11.522Z,98544.20
2018-06-30T18:42:40.726Z,98550.44
2018-06-30T18:45:09.851Z,98548.08
2018-06-30T18:47:38.972Z,98551.27
2018-06-30T18:50:08.120Z,98547.53
2018-06-30T18:52:37.307Z,98548.80
2018-06-30T18:55:06.385Z,98554.09
2018-06-30T18:57:35.573Z,98553.34
2018-06-30T19:00:05.583Z,98556.38
2018-06-30T19:02:34.757Z,98558.52
2018-06-30T19:05:03.841Z,98559.58
2018-06-30T19:07:32.985Z,98561.06
2018-06-30T19:10:02.071Z,98567.22
2018-06-30T19:12:31.261Z,98566.43
2018-06-30T19:15:00.321Z,98568.75
2018-06-30T19:17:29.422Z,98568.20
2018-06-30T19:19:58.558Z,98568.05
2018-06-30T19:22:27.746Z,98575.77
2018-06-30T19:24:56.870Z,98575.51
2018-06-30T19:27:26.413Z,98577.06
2018-06-30T19:29:55.621Z,98584.71
2018-06-30T19:32:24.785Z,98587.83
2018-06-30T19:34:53.838Z,98586.35
2018-06-30T19:37:22.966Z,98587.48
2018-06-30T19:39:52.047Z,98590.53
2018-06-30T19:42:21.227Z,98590.55
2018-06-30T19:44:50.187Z,98593.70
2018-06-30T19:47:19.232Z,98595.86
2018-06-30T19:49:48.356Z,98596.44
2018-06-30T19:52:17.390Z,98600.36
2018-06-30T19:54:46.477Z,98605.05
2018-06-30T19:57:15.715Z,98607.96
2018-06-30T19:59:44.938Z,98606.02
2018-06-30T20:02:14.069Z,98614.17
2018-06-30T20:04:43.289Z,98614.58
2018-06-30T20:07:12.361Z,98620.23
2018-06-30T20:09:41.456Z,98624.69
2018-06-30T20:12:10.598Z,98626.05
2018-06-30T20:14:39.776Z,98628.98
2018-06-30T20:17:08.897Z,98629.36
2018-06-30T20:19:38.097Z,98631.08
2018-06-30T20:22:07.242Z,98637.47
2018-06-30T20:24:36.628Z,98644.44
2018-06-30T20:27:06.073Z,98617.04
2018-06-30T20:29:34.938Z,98650.06
2018-06-30T20:32:04.057Z,98651.19
2018-06-30T20:34:33.159Z,98657.77
2018-06-30T20:37:02.238Z,98654.63
2018-06-30T20:39:31.373Z,98658.83
2018-06-30T20:42:00.482Z,98657.07
2018-06-30T20:44:29.576Z,98663.03
2018-06-30T20:46:58.758Z,98661.23
2018-06-30T20:49:27.901Z,98661.81
2018-06-30T20:51:57.017Z,98665.25
2018-06-30T20:54:26.111Z,98673.97
2018-06-30T20:56:56.386Z,98668.72
2018-06-30T20:59:25.560Z,98672.66
2018-06-30T21:01:54.623Z,98671.20
2018-06-30T21:04:23.683Z,98669.56
2018-06-30T21:06:52.867Z,98563.08
2018-06-30T21:09:21.992Z,98680.92
2018-06-30T21:11:51.097Z,98684.31
2018-06-30T21:14:20.210Z,98692.39
2018-06-30T21:16:49.420Z,98688.66
2018-06-30T21:19:18.543Z,98695.16
2018-06-30T21:21:47.677Z,98609.16
2018-06-30T21:24:17.274Z,98697.87
2018-06-30T21:26:46.418Z,98694.81
2018-06-30T21:29:15.488Z,98702.97
2018-06-30T21:31:44.608Z,98707.66
2018-06-30T21:34:13.689Z,98703.37
2018-06-30T21:36:42.875Z,98705.67
2018-06-30T21:39:13.075Z,98711.50
2018-06-30T21:41:42.161Z,98709.35
2018-06-30T21:44:11.354Z,98713.65
2018-06-30T21:46:40.806Z,98713.72
2018-06-30T21:49:10.012Z,98714.95
2018-06-30T21:51:39.130Z,98718.03
2018-06-30T21:54:09.250Z,98716.92
2018-06-30T21:56:38.402Z,98719.31
2018-06-30T21:59:07.541Z,98720.11
2018-06-30T22:01:36.593Z,98724.97
2018-06-30T22:04:05.798Z,98731.19
2018-06-30T22:06:35.293Z,98730.72
2018-06-30T22:09:07.777Z,98731.45
2018-06-30T22:11:37.081Z,98735.05
2018-06-30T22:14:06.359Z,98736.41
2018-06-30T22:16:35.559Z,98733.58
2018-06-30T22:19:04.656Z,98733.09
2018-06-30T22:21:33.754Z,98727.83
2018-06-30T22:24:02.862Z,98726.03
2018-06-30T22:26:32.040Z,98723.27
2018-06-30T22:29:01.018Z,98726.03
2018-06-30T22:31:30.130Z,98729.66
2018-06-30T22:33:59.262Z,98736.78
2018-06-30T22:36:28.381Z,98728.53
2018-06-30T22:38:57.550Z,98726.84
2018-06-30T22:41:26.673Z,98731.73
2018-06-30T22:43:55.738Z,98736.68
2018-06-30T22:46:24.853Z,98740.56
2018-06-30T22:48:53.902Z,98743.30
2018-06-30T22:51:23.005Z,98741.48
2018-06-30T22:53:52.298Z,98742.17
2018-06-30T22:56:22.244Z,98746.45
2018-06-30T22:58:51.371Z,98750.20
2018-06-30T23:01:20.514Z,98747.18
2018-06-30T23:03:49.630Z,98747.43
2018-06-30T23:06:18.782Z,98745.24
2018-06-30T23:08:54.197Z,98744.01
2018-06-30T23:11:24.269Z,98745.67
2018-06-30T23:13:53.354Z,98745.59
2018-06-30T23:16:22.469Z,98742.64
2018-06-30T23:18:51.531Z,98668.23
2018-06-30T23:21:20.643Z,98745.42
2018-06-30T23:23:49.754Z,98741.14
2018-06-30T23:26:18.843Z,98741.70
2018-06-30T23:28:47.981Z,98740.12
2018-06-30T23:31:17.022Z,98710.12
2018-06-30T23:33:46.126Z,98743.05
2018-06-30T23:36:15.577Z,98745.61
2018-06-30T23:38:44.729Z,98741.72
2018-06-30T23:41:13.780Z,98745.16
2018-06-30T23:43:42.865Z,98747.84
2018-06-30T23:46:11.946Z,98750.67
2018-06-30T23:48:41.026Z,98748.28
2018-06-30T23:51:10.196Z,98761.42
2018-06-30T23:53:39.304Z,98754.86
2018-06-30T23:56:08.489Z,98772.14
2018-06-30T23:58:37.600Z,98766.76
